createdAt,value
2023-08-08T00:00:54.781Z,20.33
2023-08-08T00:03:59.302Z,20.73
2023-08-08T00:07:02.630Z,22.55
2023-08-08T00:10:08.342Z,21.08
2023-08-08T00:13:11.798Z,19.27
2023-08-08T00:16:15.533Z,21.85
2023-08-08T00:19:19.557Z,20.35
2023-08-08T00:22:23.620Z,19.05
2023-08-08T00:25:27.213Z,19.73
2023-08-08T00:28:31.249Z,20.73
2023-08-08T00:31:34.617Z,19.88
2023-08-08T00:34:44.395Z,19.80
2023-08-08T00:37:47.896Z,18.80
2023-08-08T00:40:52.937Z,19.08
2023-08-08T00:43:56.315Z,19.73
2023-08-08T00:47:00.800Z,17.52
2023-08-08T00:50:06.630Z,18.38
2023-08-08T00:53:10.942Z,17.95
2023-08-08T00:56:19.064Z,17.33
2023-08-08T00:59:23.553Z,19.20
2023-08-08T01:02:26.919Z,18.42
2023-08-08T01:05:40.397Z,18.27
2023-08-08T01:08:57.486Z,17.98
2023-08-08T01:12:04.236Z,18.60
2023-08-08T01:15:10.786Z,15.50
2023-08-08T01:18:17.168Z,17.20
2023-08-08T01:21:20.855Z,17.70
2023-08-08T01:24:34.703Z,15.38
2023-08-08T01:27:38.455Z,14.57
2023-08-08T01:30:44.672Z,15.00
2023-08-08T01:37:04.578Z,14.90
2023-08-08T01:40:11.319Z,14.80
2023-08-08T01:43:17.570Z,13.57
2023-08-08T01:46:22.020Z,12.63
2023-08-08T01:49:26.651Z,13.95
2023-08-08T01:52:40.463Z,12.77
2023-08-08T01:55:45.904Z,12.35
2023-08-08T01:58:50.140Z,12.60
2023-08-08T02:01:55.049Z,11.55
2023-08-08T02:05:01.008Z,12.00
2023-08-08T02:08:05.385Z,13.43
2023-08-08T02:11:10.591Z,11.55
2023-08-08T02:14:39.769Z,12.30
2023-08-08T02:17:43.688Z,11.27
2023-08-08T02:20:49.156Z,11.45
2023-08-08T02:23:53.974Z,12.50
2023-08-08T02:26:58.932Z,12.18
2023-08-08T02:30:06.555Z,11.32
2023-08-08T02:33:19.014Z,11.20
2023-08-08T02:39:51.250Z,9.75
2023-08-08T02:42:59.225Z,9.52
2023-08-08T02:49:30.838Z,9.48
2023-08-08T02:52:39.021Z,10.77
2023-08-08T02:55:48.953Z,11.70
2023-08-08T03:02:24.376Z,9.55
2023-08-08T03:08:33.921Z,8.95
2023-08-08T03:11:39.527Z,10.38
2023-08-08T03:14:45.712Z,9.95
2023-08-08T03:17:50.353Z,10.02
2023-08-08T03:40:56.477Z,7.18
2023-08-08T03:44:00.739Z,6.82
2023-08-08T03:47:18.593Z,6.75
2023-08-08T04:20:18.603Z,6.47
2023-08-08T04:26:44.271Z,6.43
2023-08-08T04:29:49.461Z,5.68
2023-08-08T04:32:55.152Z,5.85
2023-08-08T04:52:27.402Z,7.78
2023-08-08T05:05:13.406Z,5.45
2023-08-08T05:31:35.270Z,6.75
2023-08-08T05:51:08.815Z,8.45
2023-08-08T05:54:17.648Z,7.88
2023-08-08T05:57:31.934Z,6.18
2023-08-08T06:00:36.258Z,6.35
2023-08-08T06:03:46.609Z,5.60
2023-08-08T06:06:54.868Z,5.15
2023-08-08T06:13:19.921Z,6.20
2023-08-08T06:16:29.069Z,6.35
2023-08-08T06:26:12.817Z,6.75
2023-08-08T06:29:18.341Z,6.72
2023-08-08T06:46:14.389Z,5.63
2023-08-08T06:49:37.855Z,5.75
2023-08-08T06:56:33.716Z,5.05
2023-08-08T06:59:49.180Z,5.50
2023-08-08T07:02:58.330Z,5.72
2023-08-08T07:13:05.542Z,6.47
2023-08-08T07:16:16.506Z,6.53
2023-08-08T07:22:45.616Z,7.90
2023-08-08T07:25:53.926Z,5.93
2023-08-08T07:42:58.844Z,6.35
2023-08-08T08:09:54.580Z,6.53
2023-08-08T08:19:52.306Z,6.20
2023-08-08T08:29:38.737Z,5.80
2023-08-08T08:56:16.737Z,6.00
2023-08-08T09:26:55.584Z,6.20
2023-08-08T09:33:27.086Z,5.80
2023-08-08T09:43:25.495Z,6.30
2023-08-08T09:56:30.662Z,6.65
2023-08-08T09:59:43.545Z,7.18
2023-08-08T10:02:51.966Z,8.27
2023-08-08T10:06:01.101Z,6.60
2023-08-08T10:12:24.449Z,14.02
2023-08-08T10:15:33.021Z,6.60
2023-08-08T10:18:40.305Z,6.47
2023-08-08T10:28:27.645Z,6.85
2023-08-08T10:38:25.101Z,6.97
2023-08-08T10:41:31.677Z,7.55
2023-08-08T10:48:19.176Z,6.32
2023-08-08T10:54:42.829Z,10.18
2023-08-08T11:07:56.539Z,7.30
2023-08-08T12:37:40.472Z,7.28
2023-08-08T13:53:22.913Z,11.77
2023-08-08T14:03:04.339Z,11.80
2023-08-08T14:06:09.076Z,11.07
2023-08-08T14:12:35.527Z,11.95
2023-08-08T14:15:41.928Z,11.07
2023-08-08T14:22:05.162Z,9.50
2023-08-08T14:28:34.288Z,10.18
2023-08-08T14:31:50.680Z,10.00
2023-08-08T14:35:07.746Z,11.38
2023-08-08T14:54:48.055Z,10.00
2023-08-08T15:01:11.594Z,8.55
2023-08-08T15:07:49.167Z,8.68
2023-08-08T15:10:52.455Z,8.80
2023-08-08T15:13:56.100Z,9.02
2023-08-08T15:17:00.671Z,8.38
2023-08-08T15:20:05.666Z,8.35
2023-08-08T15:23:12.120Z,7.93
2023-08-08T15:26:20.878Z,8.73
2023-08-08T15:29:27.848Z,8.93
2023-08-08T15:32:33.326Z,9.45
2023-08-08T15:35:37.827Z,8.77
2023-08-08T15:38:53.653Z,8.82
2023-08-08T15:42:01.098Z,9.07
2023-08-08T15:45:11.828Z,9.48
2023-08-08T15:48:22.190Z,9.35
2023-08-08T15:51:25.573Z,9.30
2023-08-08T15:54:29.355Z,9.02
2023-08-08T15:57:33.412Z,8.88
2023-08-08T16:00:36.844Z,9.07
2023-08-08T16:03:40.581Z,8.90
2023-08-08T16:06:44.709Z,8.68
2023-08-08T16:09:49.865Z,8.77
2023-08-08T16:12:53.157Z,8.50
2023-08-08T16:16:03.126Z,8.70
2023-08-08T16:19:08.595Z,8.60
2023-08-08T16:22:13.847Z,8.50
2023-08-08T16:25:17.827Z,9.13
2023-08-08T16:28:22.932Z,8.68
2023-08-08T16:31:26.159Z,9.63
2023-08-08T16:34:32.758Z,8.98
2023-08-08T16:37:36.239Z,9.20
2023-08-08T16:40:40.542Z,8.85
2023-08-08T16:43:43.895Z,10.13
2023-08-08T16:46:48.402Z,16.90
2023-08-08T16:49:52.744Z,20.15
2023-08-08T16:52:58.064Z,21.98
2023-08-08T16:56:04.412Z,18.88
2023-08-08T16:59:08.248Z,15.13
2023-08-08T17:02:11.763Z,9.45
2023-08-08T17:05:15.596Z,9.23
2023-08-08T17:08:19.824Z,8.43
2023-08-08T17:11:28.074Z,8.18
2023-08-08T17:14:34.707Z,8.30
2023-08-08T17:17:38.929Z,7.70
2023-08-08T17:20:44.181Z,7.65
2023-08-08T17:23:49.301Z,8.30
2023-08-08T17:30:12.569Z,7.88
2023-08-08T17:33:17.142Z,7.80
2023-08-08T17:36:21.118Z,8.07
2023-08-08T17:39:24.935Z,8.75
2023-08-08T17:42:28.921Z,8.70
2023-08-08T17:45:33.064Z,8.57
2023-08-08T17:48:36.840Z,9.32
2023-08-08T17:51:41.168Z,8.75
2023-08-08T17:54:45.292Z,8.27
2023-08-08T17:57:48.755Z,8.23
2023-08-08T18:00:54.750Z,8.52
2023-08-08T18:03:58.259Z,8.18
2023-08-08T18:07:02.300Z,8.82
2023-08-08T18:10:07.034Z,8.25
2023-08-08T18:13:10.436Z,7.60
2023-08-08T18:16:14.311Z,8.65
2023-08-08T18:19:22.013Z,8.40
2023-08-08T18:22:25.502Z,9.20
2023-08-08T18:25:30.489Z,8.25
2023-08-08T18:28:34.548Z,7.88
2023-08-08T18:31:39.023Z,8.13
2023-08-08T18:34:43.242Z,7.95
2023-08-08T18:37:48.783Z,8.38
2023-08-08T18:41:00.339Z,9.18
2023-08-08T18:44:07.457Z,12.32
2023-08-08T18:47:11.059Z,8.88
2023-08-08T18:50:15.876Z,9.65
2023-08-08T18:53:20.328Z,8.00
2023-08-08T18:56:26.066Z,8.02
2023-08-08T18:59:30.121Z,8.27
2023-08-08T19:02:34.720Z,9.52
2023-08-08T19:05:38.351Z,7.70
2023-08-08T19:08:42.351Z,8.05
2023-08-08T19:11:47.174Z,7.78
2023-08-08T19:14:51.168Z,8.43
2023-08-08T19:17:56.808Z,8.52
2023-08-08T19:21:00.594Z,8.65
2023-08-08T19:24:05.436Z,8.18
2023-08-08T19:27:09.213Z,8.93
2023-08-08T19:30:14.114Z,8.70
2023-08-08T19:33:18.119Z,8.60
2023-08-08T19:36:21.752Z,9.75
2023-08-08T19:39:25.262Z,10.90
2023-08-08T19:42:28.536Z,12.10
2023-08-08T19:45:33.339Z,11.38
2023-08-08T19:48:37.008Z,11.18
2023-08-08T19:51:41.757Z,10.10
2023-08-08T19:54:45.712Z,9.15
2023-08-08T19:57:50.127Z,8.70
2023-08-08T20:00:53.795Z,8.73
2023-08-08T20:03:58.410Z,8.90
2023-08-08T20:07:04.103Z,8.40
2023-08-08T20:10:09.357Z,8.60
2023-08-08T20:13:18.972Z,8.77
2023-08-08T20:16:26.142Z,8.88
2023-08-08T20:19:29.747Z,7.70
2023-08-08T20:22:33.643Z,8.35
2023-08-08T20:25:40.443Z,8.55
2023-08-08T20:28:44.644Z,8.75
2023-08-08T20:31:48.344Z,9.38
2023-08-08T20:34:52.708Z,10.00
2023-08-08T20:37:56.611Z,9.35
2023-08-08T20:41:00.165Z,7.93
2023-08-08T20:44:05.925Z,8.85
2023-08-08T20:47:09.899Z,7.95
2023-08-08T20:50:13.876Z,9.27
2023-08-08T20:53:17.172Z,8.30
2023-08-08T20:56:22.434Z,8.63
2023-08-08T20:59:28.238Z,9.30
2023-08-08T21:02:31.957Z,8.68
2023-08-08T21:05:36.520Z,8.88
2023-08-08T21:08:39.963Z,9.43
2023-08-08T21:11:43.962Z,10.10
2023-08-08T21:14:47.553Z,8.20
2023-08-08T21:17:51.686Z,8.02
2023-08-08T21:20:56.048Z,8.95
2023-08-08T21:24:00.528Z,8.52
2023-08-08T21:27:05.111Z,9.00
2023-08-08T21:30:10.545Z,9.30
2023-08-08T21:33:15.235Z,9.50
2023-08-08T21:36:20.296Z,8.95
2023-08-08T21:39:25.456Z,10.07
2023-08-08T21:42:28.933Z,10.13
2023-08-08T21:45:36.491Z,10.48
2023-08-08T21:48:40.973Z,10.05
2023-08-08T21:51:52.839Z,10.35
2023-08-08T21:54:57.278Z,9.90
2023-08-08T21:58:02.428Z,9.55
2023-08-08T22:01:07.464Z,8.40
2023-08-08T22:04:13.062Z,8.52
2023-08-08T22:07:17.793Z,8.13
2023-08-08T22:10:22.104Z,9.05
2023-08-08T22:13:26.923Z,9.05
2023-08-08T22:16:31.298Z,8.35
2023-08-08T22:19:35.648Z,8.25
2023-08-08T22:22:40.002Z,8.13
2023-08-08T22:25:44.878Z,8.60
2023-08-08T22:28:48.905Z,10.65
2023-08-08T22:31:53.066Z,9.88
2023-08-08T22:34:57.365Z,9.00
2023-08-08T22:38:00.936Z,11.32
2023-08-08T22:41:05.606Z,10.73
2023-08-08T22:44:10.211Z,10.65
2023-08-08T22:47:14.162Z,11.85
2023-08-08T22:50:18.616Z,11.63
2023-08-08T22:53:22.411Z,11.50
2023-08-08T22:56:26.398Z,11.60
2023-08-08T22:59:31.156Z,12.60
2023-08-08T23:02:36.753Z,10.10
2023-08-08T23:05:41.166Z,10.45
2023-08-08T23:08:45.472Z,10.48
2023-08-08T23:11:50.041Z,10.20
2023-08-08T23:14:54.259Z,9.93
2023-08-08T23:18:00.050Z,10.68
2023-08-08T23:21:04.476Z,11.18
2023-08-08T23:24:09.043Z,10.93
2023-08-08T23:27:15.452Z,11.00
2023-08-08T23:30:19.496Z,10.88
2023-08-08T23:33:25.694Z,12.18
2023-08-08T23:39:33.647Z,12.75
2023-08-08T23:42:38.935Z,12.80
2023-08-08T23:45:44.235Z,12.95
2023-08-08T23:48:49.072Z,12.65
2023-08-08T23:51:53.873Z,12.75
2023-08-08T23:58:15.389Z,13.00
